DLH402 EDDF-KEWR
Flight info
| Callsign | DLH402 |
|---|---|
| Flight time | N/A |
| Altitude | 38000 |
| Route | OBOKA3D OBOKA Z28 DIBIR DCT BUDIP DCT ALFEN DCT AMGOD DCT GODOS DCT ROXAT DCT NATEB DCT HAVEN DCT GOMUP/M079F380 DCT 59N020W 5930N03000W 5830N04000W 5630N05000W DCT IRLOK/N0463F380 N726B TAFFY/N0464F400 DCT KJOHN DCT HANAA FLOSI4 |
| Aircraft | A343/H-SDE2E3FGHIJ4J5M1RWXY/LB1D1 |
Departure
| Time | N/A |
|---|---|
| Airport | Frankfurt Main Airport (EDDF) |
Arrival
| Time | 2026-04-21 19:31 |
|---|---|
| Airport | Newark Liberty International Airport (KEWR) |
| Time | Latitude | Longitude | Altitude | Speed | Heading |
|---|---|---|---|---|---|
| 2026-04-21 13:41 | 57.84615 | -13.64099 | 35534 ft | 508 kts | 296° |
| 2026-04-21 13:41 | 57.87237 | -13.76450 | 35528 ft | 508 kts | 296° |
| 2026-04-21 13:42 | 57.89839 | -13.88797 | 35534 ft | 508 kts | 296° |
| 2026-04-21 13:42 | 57.92436 | -14.01170 | 35561 ft | 509 kts | 296° |
| 2026-04-21 13:43 | 57.95023 | -14.13578 | 35541 ft | 509 kts | 296° |
| 2026-04-21 13:43 | 57.97601 | -14.26033 | 35507 ft | 510 kts | 296° |
| 2026-04-21 13:44 | 58.00162 | -14.38481 | 35528 ft | 509 kts | 296° |
| 2026-04-21 13:44 | 58.02701 | -14.50876 | 35532 ft | 508 kts | 296° |
| 2026-04-21 13:45 | 58.05240 | -14.63360 | 35529 ft | 509 kts | 296° |
| 2026-04-21 13:45 | 58.07757 | -14.75816 | 35540 ft | 509 kts | 296° |
| 2026-04-21 13:46 | 58.10261 | -14.88277 | 35520 ft | 510 kts | 295° |
| 2026-04-21 13:46 | 58.12746 | -15.00756 | 35529 ft | 509 kts | 296° |
| 2026-04-21 13:47 | 58.15224 | -15.13232 | 35541 ft | 508 kts | 296° |
| 2026-04-21 13:47 | 58.17688 | -15.25736 | 35544 ft | 508 kts | 296° |
| 2026-04-21 13:48 | 58.20143 | -15.38278 | 35564 ft | 509 kts | 296° |
| 2026-04-21 13:48 | 58.22588 | -15.50851 | 35534 ft | 509 kts | 296° |
| 2026-04-21 13:49 | 58.25029 | -15.63478 | 35555 ft | 508 kts | 296° |
| 2026-04-21 13:49 | 58.27444 | -15.76037 | 35532 ft | 509 kts | 295° |
| 2026-04-21 13:50 | 58.29835 | -15.88573 | 35552 ft | 509 kts | 295° |
| 2026-04-21 13:50 | 58.32229 | -16.01190 | 35545 ft | 507 kts | 295° |
| 2026-04-21 13:51 | 58.34589 | -16.13730 | 35540 ft | 507 kts | 295° |
| 2026-04-21 13:51 | 58.36951 | -16.26350 | 35535 ft | 507 kts | 296° |
| 2026-04-21 13:52 | 58.39296 | -16.38979 | 35533 ft | 505 kts | 296° |
| 2026-04-21 13:52 | 58.41632 | -16.51615 | 35528 ft | 507 kts | 295° |
| 2026-04-21 13:53 | 58.43964 | -16.64339 | 35538 ft | 507 kts | 296° |
| 2026-04-21 13:53 | 58.46286 | -16.77081 | 35566 ft | 506 kts | 295° |
| 2026-04-21 13:54 | 58.47429 | -16.83379 | 35458 ft | 504 kts | 295° |
| 2026-04-21 13:54 | 58.48574 | -16.89710 | 35542 ft | 503 kts | 295° |
| 2026-04-21 13:54 | 58.50858 | -17.02420 | 35534 ft | 505 kts | 295° |
| 2026-04-21 13:55 | 58.53135 | -17.15170 | 35559 ft | 507 kts | 295° |
| 2026-04-21 13:55 | 58.55405 | -17.27981 | 35560 ft | 506 kts | 295° |
| 2026-04-21 13:56 | 58.57645 | -17.40707 | 35558 ft | 503 kts | 295° |
| 2026-04-21 13:56 | 58.59863 | -17.53385 | 35555 ft | 503 kts | 295° |
| 2026-04-21 13:57 | 58.62086 | -17.66189 | 35574 ft | 505 kts | 294° |
| 2026-04-21 13:57 | 58.64281 | -17.78916 | 35567 ft | 504 kts | 294° |
| 2026-04-21 13:58 | 58.66454 | -17.91609 | 35572 ft | 502 kts | 295° |
| 2026-04-21 13:58 | 58.68607 | -18.04265 | 35559 ft | 500 kts | 294° |
| 2026-04-21 13:59 | 58.70744 | -18.16915 | 35565 ft | 499 kts | 295° |
| 2026-04-21 13:59 | 58.72862 | -18.29551 | 35572 ft | 501 kts | 295° |
| 2026-04-21 14:00 | 58.74994 | -18.42364 | 35557 ft | 501 kts | 295° |
| 2026-04-21 14:00 | 58.77100 | -18.55087 | 35579 ft | 500 kts | 295° |
| 2026-04-21 14:01 | 58.79194 | -18.67853 | 35564 ft | 500 kts | 294° |
| 2026-04-21 14:01 | 58.81277 | -18.80641 | 35548 ft | 501 kts | 294° |
| 2026-04-21 14:02 | 58.83346 | -18.93432 | 35550 ft | 500 kts | 294° |
| 2026-04-21 14:03 | 58.86427 | -19.12664 | 35560 ft | 500 kts | 294° |
| 2026-04-21 14:03 | 58.88468 | -19.25510 | 35560 ft | 498 kts | 295° |
| 2026-04-21 14:04 | 58.90495 | -19.38358 | 35557 ft | 498 kts | 295° |
| 2026-04-21 14:04 | 58.92503 | -19.51195 | 35566 ft | 498 kts | 295° |
| 2026-04-21 14:05 | 58.94482 | -19.63957 | 35587 ft | 497 kts | 295° |
| 2026-04-21 14:05 | 58.96460 | -19.76774 | 35579 ft | 498 kts | 293° |
| 2026-04-21 14:06 | 58.98431 | -19.89657 | 35583 ft | 498 kts | 294° |
| 2026-04-21 14:06 | 59.00211 | -20.02653 | 35576 ft | 500 kts | 289° |
| 2026-04-21 14:07 | 59.01430 | -20.15970 | 35583 ft | 503 kts | 287° |
| 2026-04-21 14:07 | 59.02596 | -20.29362 | 35582 ft | 503 kts | 287° |
| 2026-04-21 14:08 | 59.03747 | -20.42639 | 35588 ft | 502 kts | 287° |
| 2026-04-21 14:08 | 59.04903 | -20.56121 | 35586 ft | 502 kts | 286° |
| 2026-04-21 14:09 | 59.06025 | -20.69420 | 35580 ft | 502 kts | 285° |
| 2026-04-21 14:09 | 59.07136 | -20.82716 | 35578 ft | 501 kts | 285° |
| 2026-04-21 14:10 | 59.08234 | -20.96071 | 35568 ft | 501 kts | 285° |
| 2026-04-21 14:10 | 59.09318 | -21.09401 | 35572 ft | 502 kts | 285° |
| 2026-04-21 14:11 | 59.10387 | -21.22717 | 35579 ft | 502 kts | 285° |
| 2026-04-21 14:11 | 59.11443 | -21.36070 | 35593 ft | 499 kts | 285° |
| 2026-04-21 14:12 | 59.12482 | -21.49381 | 35594 ft | 500 kts | 285° |
| 2026-04-21 14:12 | 59.13503 | -21.62654 | 35605 ft | 500 kts | 285° |
| 2026-04-21 14:13 | 59.14514 | -21.75986 | 35599 ft | 500 kts | 284° |
| 2026-04-21 14:13 | 59.15514 | -21.89312 | 35596 ft | 500 kts | 284° |
| 2026-04-21 14:14 | 59.16503 | -22.02705 | 35606 ft | 499 kts | 284° |
| 2026-04-21 14:14 | 59.17466 | -22.15960 | 35597 ft | 499 kts | 284° |
| 2026-04-21 14:15 | 59.18425 | -22.29336 | 35604 ft | 500 kts | 284° |
| 2026-04-21 14:15 | 59.19379 | -22.42872 | 35615 ft | 503 kts | 284° |
| 2026-04-21 14:16 | 59.20313 | -22.56291 | 35732 ft | 501 kts | 284° |
| 2026-04-21 14:16 | 59.21239 | -22.69809 | 35837 ft | 501 kts | 283° |
| 2026-04-21 14:17 | 59.22139 | -22.83190 | 35920 ft | 500 kts | 283° |
| 2026-04-21 14:17 | 59.23030 | -22.96634 | 36015 ft | 499 kts | 283° |
| 2026-04-21 14:18 | 59.23905 | -23.10073 | 36111 ft | 498 kts | 283° |
| 2026-04-21 14:18 | 59.24766 | -23.23475 | 36201 ft | 497 kts | 283° |
| 2026-04-21 14:19 | 59.25611 | -23.36838 | 36293 ft | 496 kts | 283° |
| 2026-04-21 14:19 | 59.26442 | -23.50226 | 36393 ft | 495 kts | 282° |
| 2026-04-21 14:20 | 59.27254 | -23.63564 | 36487 ft | 494 kts | 282° |
| 2026-04-21 14:20 | 59.28054 | -23.76914 | 36576 ft | 493 kts | 281° |
| 2026-04-21 14:21 | 59.28830 | -23.90103 | 36601 ft | 493 kts | 281° |
| 2026-04-21 14:21 | 59.29597 | -24.03350 | 36620 ft | 493 kts | 281° |
| 2026-04-21 14:22 | 59.30353 | -24.16647 | 36630 ft | 493 kts | 281° |
| 2026-04-21 14:22 | 59.31097 | -24.29958 | 36631 ft | 492 kts | 281° |
| 2026-04-21 14:23 | 59.31823 | -24.43253 | 36625 ft | 492 kts | 281° |
| 2026-04-21 14:23 | 59.32544 | -24.56668 | 36628 ft | 493 kts | 281° |
| 2026-04-21 14:24 | 59.33246 | -24.69996 | 36619 ft | 492 kts | 280° |
| 2026-04-21 14:24 | 59.33930 | -24.83269 | 36622 ft | 493 kts | 280° |
| 2026-04-21 14:25 | 59.34602 | -24.96545 | 36624 ft | 492 kts | 280° |
| 2026-04-21 14:25 | 59.35260 | -25.09857 | 36629 ft | 491 kts | 280° |
| 2026-04-21 14:26 | 59.35906 | -25.23144 | 36629 ft | 491 kts | 280° |
| 2026-04-21 14:26 | 59.36537 | -25.36453 | 36637 ft | 492 kts | 279° |
| 2026-04-21 14:27 | 59.37156 | -25.49798 | 36643 ft | 491 kts | 279° |
| 2026-04-21 14:27 | 59.37765 | -25.63204 | 36641 ft | 492 kts | 279° |
| 2026-04-21 14:28 | 59.38353 | -25.76488 | 36633 ft | 491 kts | 279° |
| 2026-04-21 14:28 | 59.38925 | -25.89701 | 36642 ft | 491 kts | 278° |
| 2026-04-21 14:29 | 59.39488 | -26.03007 | 36641 ft | 490 kts | 278° |
| 2026-04-21 14:29 | 59.40037 | -26.16274 | 36635 ft | 490 kts | 278° |
| 2026-04-21 14:30 | 59.40569 | -26.29532 | 36632 ft | 491 kts | 278° |
| 2026-04-21 14:30 | 59.41094 | -26.42904 | 36628 ft | 490 kts | 278° |
| 2026-04-21 14:31 | 59.41602 | -26.56229 | 36623 ft | 490 kts | 278° |
| 2026-04-21 14:31 | 59.42099 | -26.69604 | 36627 ft | 490 kts | 277° |
| 2026-04-21 14:32 | 59.42578 | -26.82890 | 36637 ft | 490 kts | 277° |
| 2026-04-21 14:32 | 59.43050 | -26.96352 | 36641 ft | 490 kts | 277° |
| 2026-04-21 14:33 | 59.43504 | -27.09679 | 36650 ft | 490 kts | 277° |
| 2026-04-21 14:33 | 59.43948 | -27.23111 | 36652 ft | 489 kts | 277° |
| 2026-04-21 14:34 | 59.44373 | -27.36417 | 36642 ft | 489 kts | 277° |
| 2026-04-21 14:34 | 59.44786 | -27.49751 | 36639 ft | 489 kts | 277° |
| 2026-04-21 14:35 | 59.45186 | -27.63090 | 36633 ft | 489 kts | 277° |
| 2026-04-21 14:35 | 59.45571 | -27.76415 | 36636 ft | 489 kts | 276° |
| 2026-04-21 14:36 | 59.45941 | -27.89657 | 36639 ft | 489 kts | 276° |
| 2026-04-21 14:36 | 59.46297 | -28.02993 | 36634 ft | 488 kts | 275° |
| 2026-04-21 14:37 | 59.46640 | -28.16255 | 36640 ft | 488 kts | 275° |
| 2026-04-21 14:37 | 59.46970 | -28.29567 | 36637 ft | 488 kts | 275° |
| 2026-04-21 14:38 | 59.47286 | -28.42834 | 36640 ft | 488 kts | 275° |
| 2026-04-21 14:38 | 59.47591 | -28.56190 | 36638 ft | 488 kts | 275° |
| 2026-04-21 14:39 | 59.47881 | -28.69487 | 36638 ft | 487 kts | 274° |
| 2026-04-21 14:39 | 59.48158 | -28.82905 | 36643 ft | 487 kts | 274° |
| 2026-04-21 14:40 | 59.48418 | -28.96110 | 36649 ft | 487 kts | 274° |
| 2026-04-21 14:40 | 59.48667 | -29.09422 | 36642 ft | 488 kts | 274° |
| 2026-04-21 14:41 | 59.48901 | -29.22688 | 36650 ft | 487 kts | 274° |
| 2026-04-21 14:41 | 59.49123 | -29.35912 | 36640 ft | 487 kts | 274° |
| 2026-04-21 14:42 | 59.49329 | -29.49149 | 36635 ft | 487 kts | 274° |
| 2026-04-21 14:42 | 59.49522 | -29.62369 | 36650 ft | 486 kts | 274° |
| 2026-04-21 14:43 | 59.49704 | -29.75603 | 36645 ft | 486 kts | 273° |
| 2026-04-21 14:43 | 59.49871 | -29.88856 | 36633 ft | 487 kts | 272° |
| 2026-04-21 14:44 | 59.49780 | -30.02162 | 36634 ft | 487 kts | 265° |
| 2026-04-21 14:44 | 59.49073 | -30.15332 | 36630 ft | 489 kts | 264° |
| 2026-04-21 14:45 | 59.48270 | -30.28582 | 36638 ft | 488 kts | 264° |
| 2026-04-21 14:45 | 59.47448 | -30.41818 | 36637 ft | 488 kts | 264° |
| 2026-04-21 14:46 | 59.46614 | -30.55030 | 36640 ft | 487 kts | 264° |
| 2026-04-21 14:46 | 59.45766 | -30.68243 | 36648 ft | 487 kts | 263° |
| 2026-04-21 14:47 | 59.44910 | -30.81365 | 36634 ft | 487 kts | 263° |
| 2026-04-21 14:47 | 59.44038 | -30.94500 | 36636 ft | 487 kts | 263° |
| 2026-04-21 14:48 | 59.43150 | -31.07684 | 36644 ft | 487 kts | 263° |
| 2026-04-21 14:48 | 59.42255 | -31.20773 | 36630 ft | 488 kts | 263° |
| 2026-04-21 14:49 | 59.41339 | -31.33976 | 36629 ft | 487 kts | 263° |
| 2026-04-21 14:49 | 59.40413 | -31.47138 | 36626 ft | 486 kts | 263° |
| 2026-04-21 14:50 | 59.39626 | -31.58145 | 36623 ft | 486 kts | 263° |
| 2026-04-21 14:50 | 59.38517 | -31.73453 | 36626 ft | 486 kts | 262° |
| 2026-04-21 14:51 | 59.37545 | -31.86644 | 36623 ft | 487 kts | 262° |
| 2026-04-21 14:51 | 59.36562 | -31.99826 | 36629 ft | 487 kts | 262° |
| 2026-04-21 14:52 | 59.35570 | -32.12920 | 36629 ft | 486 kts | 262° |
| 2026-04-21 14:52 | 59.34562 | -32.26076 | 36619 ft | 486 kts | 261° |
| 2026-04-21 14:53 | 59.33541 | -32.39193 | 36624 ft | 485 kts | 261° |
| 2026-04-21 14:53 | 59.32513 | -32.52215 | 36630 ft | 485 kts | 261° |
| 2026-04-21 14:54 | 59.31468 | -32.65301 | 36625 ft | 486 kts | 261° |
| 2026-04-21 14:54 | 59.30415 | -32.78312 | 36626 ft | 485 kts | 261° |
| 2026-04-21 14:55 | 59.29348 | -32.91322 | 36630 ft | 484 kts | 260° |
| 2026-04-21 14:55 | 59.28265 | -33.04372 | 36623 ft | 484 kts | 260° |
| 2026-04-21 14:56 | 59.27174 | -33.17347 | 36609 ft | 484 kts | 260° |
| 2026-04-21 14:56 | 59.26071 | -33.30292 | 36604 ft | 484 kts | 260° |
| 2026-04-21 14:57 | 59.24947 | -33.43336 | 36608 ft | 484 kts | 260° |
| 2026-04-21 14:57 | 59.23817 | -33.56278 | 36604 ft | 484 kts | 260° |
| 2026-04-21 14:58 | 59.22668 | -33.69294 | 36598 ft | 483 kts | 259° |
| 2026-04-21 14:58 | 59.21521 | -33.82127 | 36599 ft | 483 kts | 259° |
| 2026-04-21 14:59 | 59.20350 | -33.95092 | 36594 ft | 484 kts | 259° |
| 2026-04-21 14:59 | 59.19167 | -34.08033 | 36594 ft | 483 kts | 259° |
| 2026-04-21 15:00 | 59.17977 | -34.20890 | 36608 ft | 483 kts | 259° |
| 2026-04-21 15:00 | 59.16772 | -34.33759 | 36598 ft | 482 kts | 259° |
| 2026-04-21 15:01 | 59.15558 | -34.46596 | 36601 ft | 481 kts | 259° |
| 2026-04-21 15:01 | 59.14336 | -34.59365 | 36600 ft | 481 kts | 259° |
| 2026-04-21 15:02 | 59.13098 | -34.72161 | 36589 ft | 481 kts | 258° |
| 2026-04-21 15:02 | 59.11851 | -34.84926 | 36588 ft | 481 kts | 258° |
| 2026-04-21 15:03 | 59.10599 | -34.97592 | 36594 ft | 479 kts | 258° |
| 2026-04-21 15:03 | 59.09333 | -35.10271 | 36593 ft | 479 kts | 258° |
| 2026-04-21 15:04 | 59.08054 | -35.22944 | 36594 ft | 479 kts | 258° |
| 2026-04-21 15:04 | 59.06763 | -35.35599 | 36589 ft | 478 kts | 258° |
| 2026-04-21 15:05 | 59.05451 | -35.48331 | 36584 ft | 478 kts | 258° |
| 2026-04-21 15:05 | 59.03473 | -35.67288 | 36586 ft | 477 kts | 257° |
| 2026-04-21 15:06 | 59.02150 | -35.79802 | 36583 ft | 477 kts | 257° |
| 2026-04-21 15:06 | 59.00808 | -35.92369 | 36573 ft | 477 kts | 257° |
| 2026-04-21 15:07 | 58.99461 | -36.04877 | 36563 ft | 477 kts | 257° |
| 2026-04-21 15:07 | 58.98100 | -36.17392 | 36555 ft | 476 kts | 257° |
| 2026-04-21 15:08 | 58.96722 | -36.29933 | 36558 ft | 475 kts | 257° |
| 2026-04-21 15:08 | 58.95332 | -36.42456 | 36559 ft | 475 kts | 257° |
| 2026-04-21 15:09 | 58.93933 | -36.54950 | 36553 ft | 475 kts | 257° |
| 2026-04-21 15:09 | 58.92522 | -36.67442 | 36550 ft | 476 kts | 256° |
| 2026-04-21 15:10 | 58.91096 | -36.79935 | 36546 ft | 475 kts | 256° |
| 2026-04-21 15:10 | 58.89672 | -36.92310 | 36544 ft | 475 kts | 256° |
| 2026-04-21 15:11 | 58.88230 | -37.04724 | 36537 ft | 475 kts | 256° |
| 2026-04-21 15:11 | 58.86779 | -37.17094 | 36546 ft | 474 kts | 256° |
| 2026-04-21 15:12 | 58.85319 | -37.29446 | 36547 ft | 473 kts | 256° |
| 2026-04-21 15:12 | 58.83832 | -37.41897 | 36537 ft | 473 kts | 256° |
| 2026-04-21 15:13 | 58.82345 | -37.54250 | 36530 ft | 473 kts | 256° |
| 2026-04-21 15:13 | 58.80840 | -37.66643 | 36525 ft | 473 kts | 255° |
| 2026-04-21 15:14 | 58.79335 | -37.78918 | 36523 ft | 473 kts | 255° |
| 2026-04-21 15:14 | 58.77822 | -37.91157 | 36518 ft | 472 kts | 255° |
| 2026-04-21 15:15 | 58.76291 | -38.03448 | 36520 ft | 472 kts | 255° |
| 2026-04-21 15:15 | 58.74760 | -38.15622 | 36514 ft | 471 kts | 255° |
| 2026-04-21 15:16 | 58.73208 | -38.27870 | 36509 ft | 471 kts | 255° |
| 2026-04-21 15:16 | 58.71643 | -38.40106 | 36509 ft | 472 kts | 255° |
| 2026-04-21 15:17 | 58.70054 | -38.52436 | 36503 ft | 473 kts | 255° |
| 2026-04-21 15:17 | 58.68453 | -38.64753 | 36499 ft | 473 kts | 255° |
| 2026-04-21 15:18 | 58.66853 | -38.76962 | 36497 ft | 473 kts | 254° |
| 2026-04-21 15:18 | 58.65229 | -38.89256 | 36493 ft | 473 kts | 255° |
| 2026-04-21 15:19 | 58.63604 | -39.01450 | 36480 ft | 474 kts | 255° |
| 2026-04-21 15:19 | 58.61961 | -39.13696 | 36479 ft | 474 kts | 255° |
| 2026-04-21 15:20 | 58.60296 | -39.25999 | 36472 ft | 474 kts | 255° |
| 2026-04-21 15:20 | 58.58624 | -39.38248 | 36472 ft | 474 kts | 255° |
| 2026-04-21 15:21 | 58.56950 | -39.50425 | 36479 ft | 474 kts | 255° |
| 2026-04-21 15:21 | 58.56105 | -39.56530 | 36837 ft | 474 kts | 255° |
| 2026-04-21 15:21 | 58.55252 | -39.62684 | 36533 ft | 479 kts | 255° |
| 2026-04-21 15:22 | 58.54406 | -39.68770 | 36430 ft | 473 kts | 253° |
| 2026-04-21 15:22 | 58.53552 | -39.74851 | 36546 ft | 469 kts | 254° |
| 2026-04-21 15:22 | 58.51870 | -39.86804 | 36481 ft | 469 kts | 254° |
| 2026-04-21 15:23 | 58.50162 | -39.98807 | 36479 ft | 471 kts | 253° |
| 2026-04-21 15:23 | 58.48357 | -40.10819 | 36479 ft | 471 kts | 253° |
| 2026-04-21 15:24 | 58.46523 | -40.22819 | 36482 ft | 473 kts | 253° |
| 2026-04-21 15:24 | 58.44664 | -40.34881 | 36470 ft | 474 kts | 253° |
| 2026-04-21 15:25 | 58.42770 | -40.47091 | 36463 ft | 476 kts | 254° |
| 2026-04-21 15:25 | 58.40883 | -40.59185 | 36464 ft | 477 kts | 254° |
| 2026-04-21 15:26 | 58.38980 | -40.71269 | 36464 ft | 478 kts | 254° |
| 2026-04-21 15:26 | 58.37050 | -40.83478 | 36463 ft | 479 kts | 254° |
| 2026-04-21 15:27 | 58.35117 | -40.95606 | 36461 ft | 478 kts | 255° |
| 2026-04-21 15:27 | 58.33170 | -41.07730 | 36466 ft | 478 kts | 254° |
| 2026-04-21 15:28 | 58.31208 | -41.19856 | 36456 ft | 479 kts | 255° |
| 2026-04-21 15:28 | 58.29247 | -41.31894 | 36454 ft | 479 kts | 255° |
| 2026-04-21 15:29 | 58.27262 | -41.44001 | 36436 ft | 478 kts | 255° |
| 2026-04-21 15:29 | 58.25267 | -41.56083 | 36429 ft | 477 kts | 255° |
| 2026-04-21 15:30 | 58.23274 | -41.68063 | 36426 ft | 476 kts | 255° |
| 2026-04-21 15:30 | 58.21267 | -41.80058 | 36421 ft | 475 kts | 255° |
| 2026-04-21 15:31 | 58.19267 | -41.91940 | 36420 ft | 474 kts | 255° |
| 2026-04-21 15:31 | 58.17236 | -42.03922 | 36420 ft | 474 kts | 255° |
| 2026-04-21 15:32 | 58.15214 | -42.15768 | 36419 ft | 474 kts | 255° |
| 2026-04-21 15:32 | 58.13176 | -42.27635 | 36408 ft | 473 kts | 255° |
| 2026-04-21 15:33 | 58.11122 | -42.39506 | 36394 ft | 472 kts | 254° |
| 2026-04-21 15:33 | 58.09071 | -42.51276 | 36397 ft | 471 kts | 254° |
| 2026-04-21 15:34 | 58.07000 | -42.63093 | 36402 ft | 471 kts | 254° |
| 2026-04-21 15:34 | 58.04941 | -42.74775 | 36394 ft | 471 kts | 253° |
| 2026-04-21 15:35 | 58.02850 | -42.86559 | 36385 ft | 471 kts | 253° |
| 2026-04-21 15:35 | 58.00769 | -42.98223 | 36394 ft | 470 kts | 253° |
| 2026-04-21 15:36 | 57.98665 | -43.09915 | 36386 ft | 469 kts | 253° |
| 2026-04-21 15:36 | 57.96566 | -43.21525 | 36374 ft | 468 kts | 252° |
| 2026-04-21 15:37 | 57.94455 | -43.33113 | 36373 ft | 466 kts | 252° |
| 2026-04-21 15:37 | 57.92347 | -43.44633 | 36357 ft | 465 kts | 252° |
| 2026-04-21 15:38 | 57.90235 | -43.56101 | 36354 ft | 465 kts | 252° |
| 2026-04-21 15:38 | 57.88115 | -43.67532 | 36345 ft | 465 kts | 251° |
| 2026-04-21 15:39 | 57.85982 | -43.78985 | 36334 ft | 465 kts | 251° |
| 2026-04-21 15:39 | 57.83854 | -43.90328 | 36334 ft | 463 kts | 251° |
| 2026-04-21 15:40 | 57.81712 | -44.01679 | 36334 ft | 463 kts | 251° |
| 2026-04-21 15:40 | 57.79569 | -44.12968 | 36332 ft | 464 kts | 251° |
| 2026-04-21 15:41 | 57.77410 | -44.24267 | 36333 ft | 463 kts | 251° |
| 2026-04-21 15:41 | 57.75231 | -44.35627 | 36328 ft | 462 kts | 251° |
| 2026-04-21 15:42 | 57.73054 | -44.46892 | 36322 ft | 459 kts | 251° |
| 2026-04-21 15:42 | 57.70868 | -44.58134 | 36318 ft | 458 kts | 251° |
| 2026-04-21 15:43 | 57.68675 | -44.69379 | 36315 ft | 459 kts | 249° |
| 2026-04-21 15:43 | 57.66467 | -44.80603 | 36318 ft | 460 kts | 249° |
| 2026-04-21 15:44 | 57.64249 | -44.91830 | 36317 ft | 460 kts | 249° |
| 2026-04-21 15:44 | 57.62034 | -45.02964 | 36317 ft | 459 kts | 249° |
| 2026-04-21 15:45 | 57.59797 | -45.14158 | 36322 ft | 460 kts | 249° |
| 2026-04-21 15:45 | 57.57549 | -45.25337 | 36310 ft | 459 kts | 249° |
| 2026-04-21 15:46 | 57.55300 | -45.36458 | 36292 ft | 460 kts | 249° |
| 2026-04-21 15:46 | 57.53044 | -45.47555 | 36283 ft | 458 kts | 249° |
| 2026-04-21 15:47 | 57.50781 | -45.58630 | 36268 ft | 458 kts | 249° |
| 2026-04-21 15:47 | 57.48497 | -45.69738 | 36260 ft | 458 kts | 248° |
| 2026-04-21 15:48 | 57.46224 | -45.80736 | 36267 ft | 458 kts | 248° |
| 2026-04-21 15:48 | 57.43930 | -45.91776 | 36253 ft | 458 kts | 248° |
| 2026-04-21 15:49 | 57.41623 | -46.02819 | 36243 ft | 457 kts | 248° |
| 2026-04-21 15:49 | 57.39321 | -46.13775 | 36253 ft | 458 kts | 248° |
| 2026-04-21 15:50 | 57.37000 | -46.24764 | 36251 ft | 458 kts | 248° |
| 2026-04-21 15:50 | 57.34679 | -46.35694 | 36240 ft | 457 kts | 248° |
| 2026-04-21 15:51 | 57.32339 | -46.46656 | 36229 ft | 456 kts | 248° |
| 2026-04-21 15:51 | 57.30003 | -46.57547 | 36226 ft | 456 kts | 248° |
| 2026-04-21 15:52 | 57.27655 | -46.68422 | 36225 ft | 456 kts | 246° |
| 2026-04-21 15:52 | 57.25309 | -46.79231 | 36231 ft | 455 kts | 247° |
| 2026-04-21 15:53 | 57.22965 | -46.89990 | 36233 ft | 455 kts | 247° |
| 2026-04-21 15:53 | 57.20598 | -47.00789 | 36228 ft | 455 kts | 246° |
| 2026-04-21 15:54 | 57.18218 | -47.11587 | 36206 ft | 455 kts | 246° |
| 2026-04-21 15:54 | 57.15830 | -47.22371 | 36207 ft | 455 kts | 246° |
| 2026-04-21 15:55 | 57.13427 | -47.33169 | 36197 ft | 454 kts | 246° |
| 2026-04-21 15:55 | 57.11037 | -47.43851 | 36189 ft | 453 kts | 246° |
| 2026-04-21 15:56 | 57.08634 | -47.54531 | 36189 ft | 452 kts | 246° |
| 2026-04-21 15:56 | 57.06212 | -47.65251 | 36155 ft | 451 kts | 245° |
| 2026-04-21 15:57 | 57.03814 | -47.75798 | 36159 ft | 451 kts | 245° |
| 2026-04-21 15:57 | 57.01377 | -47.86477 | 36163 ft | 451 kts | 245° |
| 2026-04-21 15:58 | 56.98956 | -47.97025 | 36153 ft | 449 kts | 245° |
| 2026-04-21 15:58 | 56.96524 | -48.07573 | 36146 ft | 447 kts | 244° |
| 2026-04-21 15:59 | 56.94090 | -48.18077 | 36147 ft | 447 kts | 244° |
| 2026-04-21 15:59 | 56.91658 | -48.28524 | 36141 ft | 447 kts | 244° |
| 2026-04-21 16:00 | 56.89207 | -48.38995 | 36139 ft | 447 kts | 244° |
| 2026-04-21 16:00 | 56.86772 | -48.49350 | 36128 ft | 446 kts | 244° |
| 2026-04-21 16:01 | 56.84329 | -48.59693 | 36130 ft | 444 kts | 244° |
| 2026-04-21 16:01 | 56.81890 | -48.69959 | 36129 ft | 444 kts | 243° |
| 2026-04-21 16:02 | 56.79436 | -48.80244 | 36127 ft | 444 kts | 243° |
| 2026-04-21 16:02 | 56.76965 | -48.90546 | 36120 ft | 443 kts | 242° |
| 2026-04-21 16:03 | 56.74507 | -49.00754 | 36113 ft | 442 kts | 242° |
| 2026-04-21 16:03 | 56.72049 | -49.10920 | 36103 ft | 441 kts | 242° |
| 2026-04-21 16:04 | 56.69581 | -49.21073 | 36105 ft | 441 kts | 242° |
| 2026-04-21 16:04 | 56.67086 | -49.31291 | 36102 ft | 441 kts | 242° |
| 2026-04-21 16:05 | 56.64600 | -49.41415 | 36094 ft | 440 kts | 242° |
| 2026-04-21 16:05 | 56.62085 | -49.51623 | 36090 ft | 441 kts | 241° |
| 2026-04-21 16:06 | 56.59584 | -49.61719 | 36091 ft | 440 kts | 241° |
| 2026-04-21 16:06 | 56.57074 | -49.71802 | 36085 ft | 439 kts | 240° |
| 2026-04-21 16:07 | 56.54546 | -49.81921 | 36079 ft | 439 kts | 240° |
| 2026-04-21 16:07 | 56.52016 | -49.92001 | 36069 ft | 439 kts | 240° |
| 2026-04-21 16:08 | 56.48298 | -50.07083 | 36077 ft | 439 kts | 240° |
| 2026-04-21 16:09 | 56.45861 | -50.17185 | 36070 ft | 438 kts | 241° |
| 2026-04-21 16:09 | 56.43407 | -50.27317 | 36068 ft | 438 kts | 240° |
| 2026-04-21 16:10 | 56.40965 | -50.37368 | 36067 ft | 437 kts | 240° |
| 2026-04-21 16:10 | 56.38511 | -50.47396 | 36073 ft | 437 kts | 240° |
| 2026-04-21 16:11 | 56.36059 | -50.57391 | 36071 ft | 436 kts | 240° |
| 2026-04-21 16:11 | 56.33585 | -50.67406 | 36070 ft | 434 kts | 239° |
| 2026-04-21 16:12 | 56.31550 | -50.75627 | 36066 ft | 435 kts | 239° |
| 2026-04-21 16:12 | 56.28712 | -50.87041 | 36131 ft | 429 kts | 239° |
| 2026-04-21 16:12 | 56.27482 | -50.91951 | 36007 ft | 432 kts | 239° |
| 2026-04-21 16:13 | 56.26249 | -50.96890 | 36100 ft | 431 kts | 239° |
| 2026-04-21 16:13 | 56.23782 | -51.06700 | 36067 ft | 433 kts | 239° |
| 2026-04-21 16:14 | 56.21310 | -51.16514 | 36071 ft | 434 kts | 238° |
| 2026-04-21 16:14 | 56.18801 | -51.26408 | 36072 ft | 434 kts | 239° |
| 2026-04-21 16:15 | 56.16286 | -51.36293 | 36080 ft | 434 kts | 239° |
| 2026-04-21 16:15 | 56.13771 | -51.46123 | 36084 ft | 434 kts | 239° |
| 2026-04-21 16:16 | 56.11240 | -51.55996 | 36086 ft | 435 kts | 238° |
| 2026-04-21 16:16 | 56.08709 | -51.65803 | 36088 ft | 434 kts | 238° |
| 2026-04-21 16:17 | 56.06187 | -51.75554 | 36091 ft | 433 kts | 238° |
| 2026-04-21 16:17 | 56.03659 | -51.85255 | 36097 ft | 433 kts | 238° |
| 2026-04-21 16:18 | 56.01125 | -51.94955 | 36097 ft | 432 kts | 237° |
| 2026-04-21 16:18 | 55.98582 | -52.04642 | 36101 ft | 432 kts | 238° |
| 2026-04-21 16:19 | 55.96033 | -52.14320 | 36136 ft | 431 kts | 237° |
| 2026-04-21 16:19 | 55.93487 | -52.23953 | 36201 ft | 430 kts | 238° |
| 2026-04-21 16:20 | 55.90924 | -52.33579 | 36265 ft | 428 kts | 237° |
| 2026-04-21 16:20 | 55.88372 | -52.43144 | 36363 ft | 427 kts | 237° |
| 2026-04-21 16:21 | 55.85814 | -52.52698 | 36515 ft | 426 kts | 237° |
| 2026-04-21 16:21 | 55.83267 | -52.62157 | 36658 ft | 425 kts | 236° |
| 2026-04-21 16:22 | 55.81132 | -52.70052 | 36761 ft | 423 kts | 235° |
| 2026-04-21 16:22 | 55.78154 | -52.81028 | 36891 ft | 422 kts | 236° |
| 2026-04-21 16:23 | 55.75597 | -52.90408 | 37028 ft | 422 kts | 236° |
| 2026-04-21 16:23 | 55.73036 | -52.99781 | 37169 ft | 421 kts | 236° |
| 2026-04-21 16:24 | 55.70477 | -53.09094 | 37304 ft | 420 kts | 236° |
| 2026-04-21 16:24 | 55.67924 | -53.18346 | 37436 ft | 419 kts | 235° |
| 2026-04-21 16:25 | 55.65353 | -53.27624 | 37493 ft | 419 kts | 235° |
| 2026-04-21 16:25 | 55.62774 | -53.36898 | 37551 ft | 419 kts | 235° |
| 2026-04-21 16:26 | 55.60200 | -53.46114 | 37621 ft | 420 kts | 235° |
| 2026-04-21 16:26 | 55.57610 | -53.55345 | 37659 ft | 419 kts | 236° |
| 2026-04-21 16:27 | 55.55021 | -53.64552 | 37703 ft | 418 kts | 235° |
| 2026-04-21 16:27 | 55.52434 | -53.73699 | 37733 ft | 417 kts | 234° |
| 2026-04-21 16:28 | 55.49844 | -53.82822 | 37761 ft | 417 kts | 234° |
| 2026-04-21 16:28 | 55.47248 | -53.91939 | 37742 ft | 417 kts | 234° |
| 2026-04-21 16:29 | 55.45096 | -53.99471 | 37760 ft | 416 kts | 234° |
| 2026-04-21 16:29 | 55.42057 | -54.10050 | 37772 ft | 415 kts | 234° |
| 2026-04-21 16:30 | 55.39437 | -54.19151 | 37765 ft | 415 kts | 233° |
| 2026-04-21 16:30 | 55.36819 | -54.28195 | 37776 ft | 414 kts | 233° |
| 2026-04-21 16:31 | 55.34201 | -54.37221 | 37760 ft | 414 kts | 233° |
| 2026-04-21 16:31 | 55.31565 | -54.46252 | 37585 ft | 417 kts | 233° |
| 2026-04-21 16:32 | 55.28889 | -54.55405 | 37436 ft | 419 kts | 234° |
| 2026-04-21 16:32 | 55.26212 | -54.64520 | 37305 ft | 421 kts | 233° |
| 2026-04-21 16:33 | 55.23530 | -54.73596 | 37160 ft | 421 kts | 233° |
| 2026-04-21 16:33 | 55.20842 | -54.82683 | 37156 ft | 419 kts | 233° |
| 2026-04-21 16:34 | 55.18176 | -54.91671 | 37146 ft | 418 kts | 232° |
| 2026-04-21 16:34 | 55.15499 | -55.00622 | 37172 ft | 417 kts | 233° |
| 2026-04-21 16:35 | 55.12818 | -55.09580 | 37136 ft | 414 kts | 232° |
| 2026-04-21 16:35 | 55.10150 | -55.18442 | 37140 ft | 413 kts | 232° |
| 2026-04-21 16:36 | 55.07485 | -55.27290 | 37145 ft | 412 kts | 233° |
| 2026-04-21 16:36 | 55.04828 | -55.36050 | 37158 ft | 410 kts | 233° |
| 2026-04-21 16:37 | 55.02155 | -55.44853 | 37154 ft | 410 kts | 232° |
| 2026-04-21 16:37 | 54.99464 | -55.53642 | 37163 ft | 409 kts | 233° |
| 2026-04-21 16:38 | 54.96788 | -55.62391 | 37150 ft | 408 kts | 233° |
| 2026-04-21 16:38 | 54.94123 | -55.71075 | 37296 ft | 408 kts | 232° |
| 2026-04-21 16:38 | 54.92773 | -55.75444 | 37182 ft | 411 kts | 232° |
| 2026-04-21 16:39 | 54.91434 | -55.79788 | 37123 ft | 412 kts | 232° |
| 2026-04-21 16:39 | 54.88702 | -55.88606 | 37027 ft | 414 kts | 232° |
| 2026-04-21 16:40 | 54.85960 | -55.97434 | 36938 ft | 416 kts | 233° |
| 2026-04-21 16:40 | 54.83195 | -56.06308 | 36852 ft | 417 kts | 233° |
| 2026-04-21 16:41 | 54.80889 | -56.13665 | 36803 ft | 418 kts | 232° |
| 2026-04-21 16:41 | 54.77645 | -56.23983 | 36683 ft | 418 kts | 232° |
| 2026-04-21 16:42 | 54.74855 | -56.32827 | 36590 ft | 417 kts | 232° |
| 2026-04-21 16:42 | 54.72063 | -56.41642 | 36489 ft | 418 kts | 232° |
| 2026-04-21 16:43 | 54.69266 | -56.50439 | 36396 ft | 418 kts | 233° |
| 2026-04-21 16:43 | 54.66465 | -56.59239 | 36301 ft | 417 kts | 233° |
| 2026-04-21 16:44 | 54.63660 | -56.68001 | 36212 ft | 416 kts | 232° |
| 2026-04-21 16:44 | 54.60881 | -56.76646 | 36194 ft | 414 kts | 232° |
| 2026-04-21 16:45 | 54.58098 | -56.85286 | 36206 ft | 414 kts | 232° |
| 2026-04-21 16:45 | 54.55309 | -56.93910 | 36201 ft | 413 kts | 232° |
| 2026-04-21 16:46 | 54.52157 | -57.01939 | 36188 ft | 395 kts | 219° |
| 2026-04-21 16:46 | 54.48403 | -57.08829 | 36202 ft | 397 kts | 220° |
| 2026-04-21 16:47 | 54.44591 | -57.15712 | 36218 ft | 397 kts | 219° |
| 2026-04-21 16:47 | 54.40768 | -57.22554 | 36198 ft | 398 kts | 219° |
| 2026-04-21 16:48 | 54.36922 | -57.29398 | 36195 ft | 398 kts | 220° |
| 2026-04-21 16:48 | 54.33076 | -57.36259 | 36197 ft | 398 kts | 219° |
| 2026-04-21 16:49 | 54.29237 | -57.43054 | 36222 ft | 398 kts | 220° |
| 2026-04-21 16:49 | 54.25361 | -57.49912 | 36224 ft | 398 kts | 220° |
| 2026-04-21 16:50 | 54.21485 | -57.56744 | 36196 ft | 398 kts | 220° |
| 2026-04-21 16:50 | 54.17588 | -57.63596 | 36208 ft | 398 kts | 219° |
| 2026-04-21 16:51 | 54.13737 | -57.70358 | 36187 ft | 399 kts | 219° |
| 2026-04-21 16:51 | 54.09895 | -57.77082 | 36166 ft | 398 kts | 219° |
| 2026-04-21 16:52 | 54.06026 | -57.83822 | 36171 ft | 398 kts | 219° |
| 2026-04-21 16:52 | 54.02817 | -57.89405 | 36157 ft | 398 kts | 220° |
| 2026-04-21 16:53 | 53.98301 | -57.97229 | 36168 ft | 397 kts | 219° |
| 2026-04-21 16:53 | 53.94426 | -58.03935 | 36180 ft | 398 kts | 220° |
| 2026-04-21 16:54 | 53.90517 | -58.10672 | 36186 ft | 398 kts | 220° |
| 2026-04-21 16:54 | 53.86648 | -58.17327 | 36166 ft | 399 kts | 219° |
| 2026-04-21 16:55 | 53.82745 | -58.24019 | 36146 ft | 401 kts | 220° |
| 2026-04-21 16:55 | 53.78835 | -58.30706 | 36158 ft | 402 kts | 219° |
| 2026-04-21 16:56 | 53.74900 | -58.37411 | 36145 ft | 403 kts | 219° |
| 2026-04-21 16:56 | 53.70923 | -58.44175 | 36130 ft | 404 kts | 220° |
| 2026-04-21 16:57 | 53.66919 | -58.50958 | 36099 ft | 406 kts | 219° |
| 2026-04-21 16:57 | 53.62939 | -58.57682 | 36085 ft | 406 kts | 220° |
| 2026-04-21 16:58 | 53.58935 | -58.64433 | 36079 ft | 407 kts | 220° |
| 2026-04-21 16:58 | 53.54940 | -58.71142 | 36064 ft | 407 kts | 219° |
| 2026-04-21 16:59 | 53.50936 | -58.77856 | 36068 ft | 407 kts | 219° |
| 2026-04-21 16:59 | 53.46941 | -58.84541 | 36074 ft | 407 kts | 219° |
| 2026-04-21 17:00 | 53.42938 | -58.91208 | 36061 ft | 408 kts | 219° |
| 2026-04-21 17:00 | 53.39583 | -58.96784 | 36072 ft | 407 kts | 220° |
| 2026-04-21 17:01 | 53.34845 | -59.04632 | 36084 ft | 408 kts | 219° |
| 2026-04-21 17:01 | 53.30801 | -59.11327 | 36085 ft | 408 kts | 219° |
| 2026-04-21 17:02 | 53.26759 | -59.17975 | 36092 ft | 408 kts | 219° |
| 2026-04-21 17:02 | 53.22660 | -59.24704 | 36098 ft | 408 kts | 220° |
| 2026-04-21 17:03 | 53.18599 | -59.31370 | 36096 ft | 409 kts | 219° |
| 2026-04-21 17:03 | 53.14567 | -59.37952 | 36087 ft | 408 kts | 219° |
| 2026-04-21 17:04 | 53.10520 | -59.44552 | 36085 ft | 409 kts | 219° |
| 2026-04-21 17:04 | 53.06417 | -59.51210 | 36084 ft | 408 kts | 220° |
| 2026-04-21 17:05 | 53.02363 | -59.57785 | 36105 ft | 408 kts | 219° |
| 2026-04-21 17:05 | 52.98283 | -59.64379 | 36099 ft | 408 kts | 219° |
| 2026-04-21 17:06 | 52.94222 | -59.70916 | 36112 ft | 407 kts | 219° |
| 2026-04-21 17:06 | 52.90176 | -59.77421 | 36122 ft | 407 kts | 219° |
| 2026-04-21 17:07 | 52.86780 | -59.82867 | 36149 ft | 407 kts | 219° |
| 2026-04-21 17:07 | 52.82025 | -59.90465 | 36147 ft | 409 kts | 219° |
| 2026-04-21 17:08 | 52.77951 | -59.96962 | 36152 ft | 409 kts | 219° |
| 2026-04-21 17:08 | 52.73834 | -60.03509 | 36153 ft | 411 kts | 219° |
| 2026-04-21 17:09 | 52.67623 | -60.13340 | 36161 ft | 411 kts | 219° |
| 2026-04-21 17:09 | 52.63508 | -60.19838 | 36161 ft | 412 kts | 219° |
| 2026-04-21 17:10 | 52.59381 | -60.26327 | 36162 ft | 413 kts | 220° |
| 2026-04-21 17:10 | 52.55235 | -60.32841 | 36160 ft | 413 kts | 220° |
| 2026-04-21 17:11 | 52.51057 | -60.39379 | 36161 ft | 413 kts | 219° |
| 2026-04-21 17:11 | 52.46876 | -60.45902 | 36162 ft | 414 kts | 220° |
| 2026-04-21 17:12 | 52.42694 | -60.52413 | 36156 ft | 414 kts | 220° |
| 2026-04-21 17:12 | 52.38502 | -60.58925 | 36156 ft | 414 kts | 220° |
| 2026-04-21 17:13 | 52.34318 | -60.65404 | 36170 ft | 413 kts | 219° |
| 2026-04-21 17:13 | 52.30133 | -60.71860 | 36167 ft | 413 kts | 219° |
| 2026-04-21 17:14 | 52.25943 | -60.78318 | 36166 ft | 413 kts | 219° |
| 2026-04-21 17:14 | 52.21724 | -60.84791 | 36168 ft | 413 kts | 219° |
| 2026-04-21 17:15 | 52.18234 | -60.90143 | 36157 ft | 413 kts | 219° |
| 2026-04-21 17:15 | 52.13337 | -60.97625 | 36154 ft | 413 kts | 219° |
| 2026-04-21 17:16 | 52.09157 | -61.03992 | 36143 ft | 413 kts | 219° |
| 2026-04-21 17:16 | 52.04951 | -61.10377 | 36141 ft | 413 kts | 219° |
| 2026-04-21 17:17 | 52.00722 | -61.16784 | 36134 ft | 413 kts | 219° |
| 2026-04-21 17:17 | 51.96516 | -61.23141 | 36127 ft | 412 kts | 219° |
| 2026-04-21 17:18 | 51.92291 | -61.29503 | 36126 ft | 412 kts | 219° |
| 2026-04-21 17:18 | 51.88079 | -61.35831 | 36147 ft | 412 kts | 219° |
| 2026-04-21 17:19 | 51.83887 | -61.42112 | 36153 ft | 413 kts | 219° |
| 2026-04-21 17:19 | 51.79705 | -61.48369 | 36160 ft | 413 kts | 219° |
| 2026-04-21 17:20 | 51.76171 | -61.53636 | 36165 ft | 414 kts | 219° |
| 2026-04-21 17:20 | 51.71243 | -61.60961 | 36172 ft | 414 kts | 220° |
| 2026-04-21 17:21 | 51.66998 | -61.67261 | 36175 ft | 415 kts | 219° |
| 2026-04-21 17:21 | 51.62775 | -61.73503 | 36176 ft | 415 kts | 219° |
| 2026-04-21 17:22 | 51.58524 | -61.79774 | 36182 ft | 415 kts | 219° |
| 2026-04-21 17:22 | 51.54994 | -61.84971 | 36191 ft | 416 kts | 219° |
| 2026-04-21 17:23 | 51.50729 | -61.91231 | 36190 ft | 416 kts | 219° |
| 2026-04-21 17:23 | 51.45770 | -61.98489 | 36187 ft | 416 kts | 219° |
| 2026-04-21 17:24 | 51.41493 | -62.04727 | 36192 ft | 416 kts | 219° |
| 2026-04-21 17:24 | 51.37203 | -62.10974 | 36186 ft | 416 kts | 219° |
| 2026-04-21 17:25 | 51.32909 | -62.17209 | 36187 ft | 416 kts | 219° |
| 2026-04-21 17:25 | 51.28619 | -62.23415 | 36183 ft | 416 kts | 219° |
| 2026-04-21 17:26 | 51.24334 | -62.29607 | 36184 ft | 417 kts | 219° |
| 2026-04-21 17:26 | 51.20021 | -62.35819 | 36183 ft | 417 kts | 219° |
| 2026-04-21 17:27 | 51.15707 | -62.42012 | 36183 ft | 416 kts | 219° |
| 2026-04-21 17:27 | 51.11379 | -62.48219 | 36176 ft | 417 kts | 219° |
| 2026-04-21 17:28 | 51.07063 | -62.54385 | 36180 ft | 417 kts | 219° |
| 2026-04-21 17:28 | 51.03468 | -62.59510 | 36179 ft | 416 kts | 219° |
| 2026-04-21 17:29 | 50.98426 | -62.66676 | 36190 ft | 416 kts | 218° |
| 2026-04-21 17:29 | 50.94131 | -62.72768 | 36198 ft | 416 kts | 219° |
| 2026-04-21 17:30 | 50.89845 | -62.78829 | 36197 ft | 416 kts | 218° |
| 2026-04-21 17:30 | 50.85529 | -62.84917 | 36210 ft | 417 kts | 218° |
| 2026-04-21 17:31 | 50.81190 | -62.91025 | 36220 ft | 418 kts | 218° |
| 2026-04-21 17:31 | 50.76865 | -62.97089 | 36213 ft | 419 kts | 219° |
| 2026-04-21 17:32 | 50.72492 | -63.03213 | 36231 ft | 420 kts | 219° |
| 2026-04-21 17:32 | 50.68118 | -63.09315 | 36236 ft | 420 kts | 219° |
| 2026-04-21 17:33 | 50.63745 | -63.15407 | 36239 ft | 420 kts | 219° |
| 2026-04-21 17:33 | 50.60092 | -63.20483 | 36254 ft | 420 kts | 219° |
| 2026-04-21 17:34 | 50.54946 | -63.27611 | 36264 ft | 420 kts | 219° |
| 2026-04-21 17:34 | 50.50531 | -63.33710 | 36275 ft | 421 kts | 219° |
| 2026-04-21 17:35 | 50.46126 | -63.39781 | 36276 ft | 421 kts | 219° |
| 2026-04-21 17:35 | 50.41711 | -63.45848 | 36285 ft | 421 kts | 219° |
| 2026-04-21 17:36 | 50.37304 | -63.51890 | 36292 ft | 421 kts | 219° |
| 2026-04-21 17:36 | 50.32857 | -63.57971 | 36304 ft | 421 kts | 219° |
| 2026-04-21 17:37 | 50.28436 | -63.64001 | 36314 ft | 421 kts | 219° |
| 2026-04-21 17:37 | 50.24021 | -63.70007 | 36321 ft | 421 kts | 218° |
| 2026-04-21 17:38 | 50.19611 | -63.75991 | 36327 ft | 422 kts | 218° |
| 2026-04-21 17:38 | 50.15203 | -63.81959 | 36321 ft | 422 kts | 218° |
| 2026-04-21 17:39 | 50.10791 | -63.87917 | 36324 ft | 422 kts | 218° |
| 2026-04-21 17:39 | 50.07079 | -63.92914 | 36326 ft | 423 kts | 218° |
| 2026-04-21 17:40 | 50.02622 | -63.98901 | 36331 ft | 423 kts | 218° |
| 2026-04-21 17:40 | 49.97395 | -64.05907 | 36340 ft | 423 kts | 219° |
| 2026-04-21 17:41 | 49.92931 | -64.11876 | 36339 ft | 423 kts | 218° |
| 2026-04-21 17:41 | 49.88453 | -64.17840 | 36343 ft | 424 kts | 219° |
| 2026-04-21 17:42 | 49.84734 | -64.22790 | 36349 ft | 425 kts | 219° |
| 2026-04-21 17:42 | 49.79496 | -64.29738 | 36337 ft | 426 kts | 219° |
| 2026-04-21 17:43 | 49.75019 | -64.35659 | 36333 ft | 427 kts | 219° |
| 2026-04-21 17:43 | 49.70505 | -64.41616 | 36331 ft | 428 kts | 219° |
| 2026-04-21 17:44 | 49.65940 | -64.47625 | 36320 ft | 428 kts | 219° |
| 2026-04-21 17:44 | 49.62176 | -64.52567 | 36314 ft | 429 kts | 219° |
| 2026-04-21 17:45 | 49.57585 | -64.58579 | 36322 ft | 429 kts | 219° |
| 2026-04-21 17:45 | 49.52271 | -64.65526 | 36317 ft | 430 kts | 218° |
| 2026-04-21 17:46 | 49.48479 | -64.70464 | 36320 ft | 430 kts | 218° |
| 2026-04-21 17:46 | 49.43129 | -64.77422 | 36317 ft | 431 kts | 218° |
| 2026-04-21 17:47 | 49.39306 | -64.82378 | 36312 ft | 431 kts | 218° |
| 2026-04-21 17:47 | 49.33926 | -64.89335 | 36311 ft | 432 kts | 218° |
| 2026-04-21 17:48 | 49.30086 | -64.94292 | 36300 ft | 432 kts | 218° |
| 2026-04-21 17:48 | 49.24681 | -65.01244 | 36302 ft | 433 kts | 218° |
| 2026-04-21 17:49 | 49.20031 | -65.07211 | 36292 ft | 433 kts | 218° |
| 2026-04-21 17:49 | 49.16184 | -65.12134 | 36285 ft | 434 kts | 218° |
| 2026-04-21 17:50 | 49.11522 | -65.18089 | 36267 ft | 434 kts | 218° |
| 2026-04-21 17:50 | 49.06883 | -65.24001 | 36254 ft | 434 kts | 218° |
| 2026-04-21 17:51 | 49.01413 | -65.30949 | 36231 ft | 435 kts | 218° |
| 2026-04-21 17:51 | 48.97540 | -65.35860 | 36203 ft | 436 kts | 218° |
| 2026-04-21 17:52 | 48.92061 | -65.42786 | 36186 ft | 437 kts | 218° |
| 2026-04-21 17:52 | 48.88113 | -65.47763 | 36186 ft | 437 kts | 219° |
| 2026-04-21 17:53 | 48.82657 | -65.54625 | 36183 ft | 438 kts | 219° |
| 2026-04-21 17:53 | 48.78692 | -65.59600 | 36183 ft | 438 kts | 219° |
| 2026-04-21 17:54 | 48.74009 | -65.65462 | 36180 ft | 439 kts | 218° |
| 2026-04-21 17:54 | 48.68518 | -65.72316 | 36197 ft | 439 kts | 218° |
| 2026-04-21 17:55 | 48.64573 | -65.77232 | 36209 ft | 440 kts | 218° |
| 2026-04-21 17:55 | 48.59099 | -65.84025 | 36225 ft | 440 kts | 218° |
| 2026-04-21 17:56 | 48.55156 | -65.88912 | 36232 ft | 440 kts | 218° |
| 2026-04-21 17:56 | 48.50397 | -65.94796 | 36238 ft | 440 kts | 218° |
| 2026-04-21 17:57 | 48.45654 | -66.00644 | 36241 ft | 441 kts | 218° |
| 2026-04-21 17:57 | 48.40100 | -66.07476 | 36237 ft | 441 kts | 218° |
| 2026-04-21 17:58 | 48.36104 | -66.12376 | 36238 ft | 442 kts | 218° |
| 2026-04-21 17:58 | 48.31352 | -66.18192 | 36227 ft | 442 kts | 218° |
| 2026-04-21 17:59 | 48.26563 | -66.24039 | 36227 ft | 443 kts | 218° |
| 2026-04-21 17:59 | 48.20939 | -66.30885 | 36233 ft | 443 kts | 219° |
| 2026-04-21 18:00 | 48.16918 | -66.35768 | 36244 ft | 443 kts | 219° |
| 2026-04-21 18:00 | 48.11319 | -66.42554 | 36262 ft | 443 kts | 219° |
| 2026-04-21 18:01 | 48.06514 | -66.48358 | 36273 ft | 443 kts | 219° |
| 2026-04-21 18:01 | 48.02501 | -66.53198 | 36279 ft | 443 kts | 219° |
| 2026-04-21 18:02 | 47.97657 | -66.59021 | 36287 ft | 444 kts | 219° |
| 2026-04-21 18:02 | 47.92792 | -66.64857 | 36288 ft | 445 kts | 219° |
| 2026-04-21 18:03 | 47.87970 | -66.70627 | 36296 ft | 446 kts | 218° |
| 2026-04-21 18:03 | 47.83165 | -66.76363 | 36291 ft | 447 kts | 218° |
| 2026-04-21 18:04 | 47.78310 | -66.82147 | 36281 ft | 448 kts | 218° |
| 2026-04-21 18:04 | 47.73441 | -66.87932 | 36265 ft | 449 kts | 218° |
| 2026-04-21 18:05 | 47.68570 | -66.93705 | 36259 ft | 449 kts | 219° |
| 2026-04-21 18:05 | 47.62905 | -67.00399 | 36261 ft | 449 kts | 219° |
| 2026-04-21 18:06 | 47.58022 | -67.06153 | 36262 ft | 449 kts | 219° |
| 2026-04-21 18:06 | 47.53960 | -67.10930 | 36251 ft | 450 kts | 219° |
| 2026-04-21 18:07 | 47.49078 | -67.16663 | 36241 ft | 450 kts | 219° |
| 2026-04-21 18:07 | 47.44147 | -67.22433 | 36238 ft | 451 kts | 219° |
| 2026-04-21 18:08 | 47.39204 | -67.28205 | 36242 ft | 452 kts | 219° |
| 2026-04-21 18:08 | 47.34609 | -67.34495 | 36259 ft | 450 kts | 227° |
| 2026-04-21 18:09 | 47.30273 | -67.41165 | 36242 ft | 451 kts | 227° |
| 2026-04-21 18:09 | 47.25869 | -67.47886 | 36248 ft | 452 kts | 227° |
| 2026-04-21 18:10 | 47.21515 | -67.54504 | 36249 ft | 452 kts | 227° |
| 2026-04-21 18:10 | 47.17132 | -67.61149 | 36252 ft | 452 kts | 227° |
| 2026-04-21 18:11 | 47.12725 | -67.67812 | 36257 ft | 452 kts | 226° |
| 2026-04-21 18:11 | 47.07621 | -67.75510 | 36267 ft | 453 kts | 227° |
| 2026-04-21 18:12 | 47.03975 | -67.80997 | 36265 ft | 453 kts | 226° |
| 2026-04-21 18:12 | 46.99573 | -67.87603 | 36262 ft | 453 kts | 226° |
| 2026-04-21 18:13 | 46.95160 | -67.94209 | 36260 ft | 454 kts | 227° |
| 2026-04-21 18:13 | 46.90715 | -68.00842 | 36267 ft | 454 kts | 227° |
| 2026-04-21 18:14 | 46.84082 | -68.10720 | 36271 ft | 455 kts | 227° |
| 2026-04-21 18:15 | 46.79672 | -68.17263 | 36276 ft | 455 kts | 227° |
| 2026-04-21 18:15 | 46.75232 | -68.23834 | 36281 ft | 455 kts | 227° |
| 2026-04-21 18:16 | 46.70797 | -68.30384 | 36270 ft | 455 kts | 227° |
| 2026-04-21 18:16 | 46.66327 | -68.36971 | 36254 ft | 456 kts | 227° |
| 2026-04-21 18:17 | 46.61829 | -68.43578 | 36247 ft | 457 kts | 227° |
| 2026-04-21 18:17 | 46.57340 | -68.50157 | 36248 ft | 457 kts | 227° |
| 2026-04-21 18:18 | 46.52844 | -68.56728 | 36247 ft | 457 kts | 228° |
| 2026-04-21 18:18 | 46.48344 | -68.63291 | 36235 ft | 458 kts | 228° |
| 2026-04-21 18:19 | 46.43824 | -68.69862 | 36225 ft | 458 kts | 227° |
| 2026-04-21 18:19 | 46.39305 | -68.76421 | 36212 ft | 458 kts | 227° |
| 2026-04-21 18:20 | 46.34777 | -68.82975 | 36214 ft | 459 kts | 227° |
| 2026-04-21 18:20 | 46.30301 | -68.89436 | 36224 ft | 459 kts | 227° |
| 2026-04-21 18:21 | 46.25763 | -68.95976 | 36229 ft | 459 kts | 227° |
| 2026-04-21 18:21 | 46.21272 | -69.02428 | 36222 ft | 460 kts | 227° |
| 2026-04-21 18:22 | 46.16727 | -69.08939 | 36215 ft | 460 kts | 228° |
| 2026-04-21 18:22 | 46.12192 | -69.15424 | 36217 ft | 460 kts | 228° |
| 2026-04-21 18:23 | 46.07669 | -69.21875 | 36230 ft | 460 kts | 228° |
| 2026-04-21 18:23 | 46.03139 | -69.28321 | 36231 ft | 460 kts | 228° |
| 2026-04-21 18:24 | 45.98598 | -69.34762 | 36226 ft | 461 kts | 228° |
| 2026-04-21 18:24 | 45.94053 | -69.41198 | 36228 ft | 460 kts | 229° |
| 2026-04-21 18:25 | 45.89492 | -69.47637 | 36231 ft | 460 kts | 229° |
| 2026-04-21 18:25 | 45.84938 | -69.54057 | 36227 ft | 460 kts | 229° |
| 2026-04-21 18:26 | 45.80396 | -69.60444 | 36224 ft | 461 kts | 229° |
| 2026-04-21 18:26 | 45.75805 | -69.66876 | 36232 ft | 462 kts | 228° |
| 2026-04-21 18:27 | 45.71235 | -69.73269 | 36233 ft | 463 kts | 228° |
| 2026-04-21 18:27 | 45.66644 | -69.79675 | 36223 ft | 462 kts | 228° |
| 2026-04-21 18:28 | 45.62073 | -69.86037 | 36212 ft | 461 kts | 228° |
| 2026-04-21 18:28 | 45.57480 | -69.92419 | 36206 ft | 461 kts | 229° |
| 2026-04-21 18:29 | 45.52861 | -69.98817 | 36201 ft | 462 kts | 228° |
| 2026-04-21 18:29 | 45.48223 | -70.05225 | 36205 ft | 463 kts | 229° |
| 2026-04-21 18:30 | 45.43568 | -70.11639 | 36217 ft | 464 kts | 229° |
| 2026-04-21 18:30 | 45.38940 | -70.18005 | 36230 ft | 464 kts | 229° |
| 2026-04-21 18:31 | 45.34234 | -70.24460 | 36232 ft | 464 kts | 229° |
| 2026-04-21 18:31 | 45.29588 | -70.30818 | 36232 ft | 464 kts | 229° |
| 2026-04-21 18:32 | 45.24913 | -70.37202 | 36230 ft | 464 kts | 229° |
| 2026-04-21 18:32 | 45.20232 | -70.43578 | 36226 ft | 465 kts | 229° |
| 2026-04-21 18:33 | 45.15580 | -70.49901 | 36228 ft | 465 kts | 229° |
| 2026-04-21 18:33 | 45.10916 | -70.56224 | 36218 ft | 466 kts | 230° |
| 2026-04-21 18:34 | 45.06193 | -70.62605 | 36202 ft | 466 kts | 230° |
| 2026-04-21 18:34 | 45.01544 | -70.68882 | 36200 ft | 466 kts | 229° |
| 2026-04-21 18:35 | 44.96838 | -70.75212 | 36196 ft | 468 kts | 229° |
| 2026-04-21 18:35 | 44.92140 | -70.81526 | 36191 ft | 468 kts | 229° |
| 2026-04-21 18:36 | 44.87458 | -70.87797 | 36180 ft | 468 kts | 229° |
| 2026-04-21 18:36 | 44.82742 | -70.94097 | 36200 ft | 468 kts | 230° |
| 2026-04-21 18:37 | 44.78030 | -71.00381 | 36211 ft | 469 kts | 229° |
| 2026-04-21 18:37 | 44.73317 | -71.06644 | 36219 ft | 469 kts | 230° |
| 2026-04-21 18:38 | 44.68550 | -71.12973 | 36217 ft | 468 kts | 230° |
| 2026-04-21 18:38 | 44.63805 | -71.19257 | 36217 ft | 469 kts | 230° |
| 2026-04-21 18:39 | 44.59014 | -71.25577 | 36235 ft | 468 kts | 230° |
| 2026-04-21 18:39 | 44.54272 | -71.31829 | 36248 ft | 469 kts | 230° |
| 2026-04-21 18:40 | 44.49482 | -71.38126 | 36251 ft | 469 kts | 230° |
| 2026-04-21 18:40 | 44.44697 | -71.44398 | 36246 ft | 468 kts | 230° |
| 2026-04-21 18:41 | 44.39938 | -71.50626 | 36242 ft | 468 kts | 230° |
| 2026-04-21 18:41 | 44.35118 | -71.56911 | 36247 ft | 470 kts | 231° |
| 2026-04-21 18:42 | 44.30326 | -71.63155 | 36240 ft | 470 kts | 231° |
| 2026-04-21 18:42 | 44.25549 | -71.69362 | 36250 ft | 469 kts | 230° |
| 2026-04-21 18:43 | 44.20799 | -71.75662 | 36226 ft | 463 kts | 238° |
| 2026-04-21 18:43 | 44.17074 | -71.82816 | 36226 ft | 458 kts | 242° |
| 2026-04-21 18:44 | 44.13269 | -71.90022 | 35885 ft | 463 kts | 242° |
| 2026-04-21 18:44 | 44.11375 | -71.93590 | 35696 ft | 462 kts | 241° |
| 2026-04-21 18:44 | 44.09459 | -71.97199 | 35523 ft | 461 kts | 242° |
| 2026-04-21 18:44 | 44.07581 | -72.00723 | 35361 ft | 459 kts | 242° |
| 2026-04-21 18:45 | 44.05692 | -72.04278 | 35192 ft | 459 kts | 242° |
| 2026-04-21 18:45 | 44.03784 | -72.07859 | 35030 ft | 459 kts | 242° |
| 2026-04-21 18:45 | 44.01900 | -72.11395 | 34874 ft | 462 kts | 242° |
| 2026-04-21 18:45 | 43.99974 | -72.14998 | 34739 ft | 465 kts | 242° |
| 2026-04-21 18:46 | 43.98074 | -72.18553 | 34599 ft | 462 kts | 242° |
| 2026-04-21 18:46 | 43.96124 | -72.22185 | 34438 ft | 463 kts | 242° |
| 2026-04-21 18:46 | 43.94214 | -72.25748 | 34294 ft | 461 kts | 243° |
| 2026-04-21 18:46 | 43.92281 | -72.29350 | 34147 ft | 462 kts | 243° |
| 2026-04-21 18:47 | 43.90352 | -72.32933 | 33996 ft | 465 kts | 243° |
| 2026-04-21 18:47 | 43.88400 | -72.36568 | 33863 ft | 465 kts | 243° |
| 2026-04-21 18:47 | 43.86446 | -72.40187 | 33720 ft | 464 kts | 243° |
| 2026-04-21 18:47 | 43.84528 | -72.43745 | 33588 ft | 463 kts | 243° |
| 2026-04-21 18:48 | 43.82581 | -72.47347 | 33429 ft | 463 kts | 243° |
| 2026-04-21 18:48 | 43.80653 | -72.50914 | 33255 ft | 465 kts | 243° |
| 2026-04-21 18:48 | 43.78723 | -72.54481 | 32925 ft | 467 kts | 244° |
| 2026-04-21 18:48 | 43.76760 | -72.58092 | 32503 ft | 464 kts | 243° |
| 2026-04-21 18:49 | 43.74802 | -72.61692 | 32117 ft | 465 kts | 244° |
| 2026-04-21 18:49 | 43.72865 | -72.65268 | 31743 ft | 466 kts | 243° |
| 2026-04-21 18:49 | 43.71540 | -72.67686 | 31495 ft | 467 kts | 243° |
| 2026-04-21 18:49 | 43.68926 | -72.72491 | 31004 ft | 470 kts | 243° |
| 2026-04-21 18:50 | 43.66965 | -72.76085 | 30637 ft | 470 kts | 244° |
| 2026-04-21 18:50 | 43.64974 | -72.79736 | 30245 ft | 473 kts | 244° |
| 2026-04-21 18:50 | 43.63002 | -72.83349 | 29850 ft | 475 kts | 244° |
| 2026-04-21 18:50 | 43.60996 | -72.87009 | 29456 ft | 474 kts | 243° |
| 2026-04-21 18:51 | 43.59017 | -72.90614 | 29059 ft | 474 kts | 243° |
| 2026-04-21 18:51 | 43.57006 | -72.94280 | 28647 ft | 476 kts | 243° |
| 2026-04-21 18:51 | 43.55001 | -72.97920 | 28233 ft | 472 kts | 243° |
| 2026-04-21 18:51 | 43.53057 | -73.01444 | 27793 ft | 450 kts | 244° |
| 2026-04-21 18:52 | 43.51201 | -73.04811 | 27345 ft | 437 kts | 244° |
| 2026-04-21 18:52 | 43.49373 | -73.08122 | 26905 ft | 430 kts | 244° |
| 2026-04-21 18:52 | 43.47568 | -73.11399 | 26478 ft | 428 kts | 244° |
| 2026-04-21 18:52 | 43.45775 | -73.14651 | 26039 ft | 426 kts | 244° |
| 2026-04-21 18:53 | 43.43995 | -73.17863 | 25618 ft | 422 kts | 243° |
| 2026-04-21 18:53 | 43.42220 | -73.21069 | 25190 ft | 421 kts | 243° |
| 2026-04-21 18:53 | 43.40455 | -73.24260 | 24751 ft | 417 kts | 243° |
| 2026-04-21 18:53 | 43.38700 | -73.27403 | 24360 ft | 418 kts | 243° |
| 2026-04-21 18:54 | 43.36937 | -73.30579 | 24216 ft | 410 kts | 243° |
| 2026-04-21 18:54 | 43.35227 | -73.33659 | 24278 ft | 407 kts | 243° |
| 2026-04-21 18:54 | 43.33510 | -73.36736 | 24244 ft | 413 kts | 243° |
| 2026-04-21 18:54 | 43.31765 | -73.39868 | 24258 ft | 416 kts | 243° |
| 2026-04-21 18:55 | 43.30013 | -73.43009 | 24253 ft | 416 kts | 243° |
| 2026-04-21 18:55 | 43.28256 | -73.46143 | 24248 ft | 414 kts | 244° |
| 2026-04-21 18:55 | 43.26517 | -73.49255 | 24245 ft | 404 kts | 244° |
| 2026-04-21 18:55 | 43.24822 | -73.52277 | 24244 ft | 398 kts | 244° |
| 2026-04-21 18:56 | 43.23138 | -73.55285 | 24137 ft | 401 kts | 244° |
| 2026-04-21 18:56 | 43.21434 | -73.58321 | 23664 ft | 404 kts | 242° |
| 2026-04-21 18:56 | 43.19369 | -73.61001 | 23249 ft | 421 kts | 224° |
| 2026-04-21 18:56 | 43.16665 | -73.62723 | 22879 ft | 439 kts | 206° |
| 2026-04-21 18:57 | 43.13761 | -73.63883 | 22502 ft | 434 kts | 206° |
| 2026-04-21 18:57 | 43.10850 | -73.65086 | 22087 ft | 432 kts | 205° |
| 2026-04-21 18:57 | 43.08002 | -73.66292 | 21697 ft | 428 kts | 205° |
| 2026-04-21 18:57 | 43.05171 | -73.67489 | 21247 ft | 423 kts | 206° |
| 2026-04-21 18:58 | 43.02416 | -73.68649 | 20711 ft | 412 kts | 205° |
| 2026-04-21 18:58 | 42.99715 | -73.69791 | 20213 ft | 404 kts | 205° |
| 2026-04-21 18:58 | 42.97045 | -73.70913 | 19716 ft | 396 kts | 206° |
| 2026-04-21 18:58 | 42.94434 | -73.72018 | 19222 ft | 394 kts | 205° |
| 2026-04-21 18:59 | 42.91826 | -73.73126 | 18756 ft | 392 kts | 205° |
| 2026-04-21 18:59 | 42.89235 | -73.74217 | 18259 ft | 389 kts | 205° |
| 2026-04-21 18:59 | 42.86685 | -73.75286 | 17792 ft | 385 kts | 205° |
| 2026-04-21 18:59 | 42.84148 | -73.76363 | 17289 ft | 383 kts | 205° |
| 2026-04-21 19:00 | 42.81620 | -73.77424 | 16790 ft | 378 kts | 205° |
| 2026-04-21 19:00 | 42.79105 | -73.78475 | 16292 ft | 373 kts | 205° |
| 2026-04-21 19:00 | 42.76640 | -73.79511 | 15987 ft | 369 kts | 205° |
| 2026-04-21 19:00 | 42.74214 | -73.80534 | 16045 ft | 366 kts | 206° |
| 2026-04-21 19:01 | 42.71782 | -73.81641 | 16002 ft | 371 kts | 206° |
| 2026-04-21 19:01 | 42.69315 | -73.82749 | 16008 ft | 371 kts | 206° |
| 2026-04-21 19:01 | 42.66882 | -73.83836 | 15992 ft | 372 kts | 206° |
| 2026-04-21 19:01 | 42.64409 | -73.84950 | 15987 ft | 373 kts | 206° |
| 2026-04-21 19:02 | 42.61977 | -73.86037 | 15966 ft | 372 kts | 206° |
| 2026-04-21 19:02 | 42.59508 | -73.87147 | 15674 ft | 374 kts | 206° |
| 2026-04-21 19:02 | 42.57034 | -73.88254 | 15352 ft | 371 kts | 206° |
| 2026-04-21 19:02 | 42.54614 | -73.89331 | 15058 ft | 366 kts | 206° |
| 2026-04-21 19:03 | 42.52206 | -73.90406 | 14756 ft | 362 kts | 206° |
| 2026-04-21 19:03 | 42.49824 | -73.91473 | 14451 ft | 361 kts | 206° |
| 2026-04-21 19:03 | 42.47440 | -73.92537 | 14156 ft | 358 kts | 206° |
| 2026-04-21 19:03 | 42.45094 | -73.93586 | 13857 ft | 357 kts | 206° |
| 2026-04-21 19:04 | 42.42728 | -73.94636 | 13551 ft | 354 kts | 206° |
| 2026-04-21 19:04 | 42.40416 | -73.95667 | 13305 ft | 352 kts | 206° |
| 2026-04-21 19:04 | 42.38094 | -73.96697 | 13079 ft | 351 kts | 206° |
| 2026-04-21 19:04 | 42.35776 | -73.97728 | 12855 ft | 350 kts | 206° |
| 2026-04-21 19:05 | 42.33489 | -73.98741 | 12633 ft | 349 kts | 206° |
| 2026-04-21 19:05 | 42.31192 | -73.99764 | 12410 ft | 346 kts | 206° |
| 2026-04-21 19:05 | 42.28895 | -74.00781 | 12186 ft | 345 kts | 206° |
| 2026-04-21 19:05 | 42.25869 | -74.02125 | 11884 ft | 343 kts | 205° |
| 2026-04-21 19:06 | 42.24368 | -74.02785 | 11734 ft | 341 kts | 205° |
| 2026-04-21 19:06 | 42.22124 | -74.03780 | 11507 ft | 341 kts | 205° |
| 2026-04-21 19:06 | 42.19880 | -74.04766 | 11284 ft | 329 kts | 206° |
| 2026-04-21 19:06 | 42.17754 | -74.05705 | 11082 ft | 316 kts | 206° |
| 2026-04-21 19:07 | 42.15708 | -74.06605 | 10877 ft | 304 kts | 206° |
| 2026-04-21 19:07 | 42.13699 | -74.07492 | 10685 ft | 301 kts | 206° |
| 2026-04-21 19:07 | 42.11736 | -74.08363 | 10502 ft | 299 kts | 206° |
| 2026-04-21 19:07 | 42.09761 | -74.09235 | 10317 ft | 297 kts | 205° |
| 2026-04-21 19:08 | 42.07809 | -74.10093 | 10137 ft | 296 kts | 206° |
| 2026-04-21 19:08 | 42.05839 | -74.10963 | 9958 ft | 296 kts | 206° |
| 2026-04-21 19:08 | 42.03886 | -74.11819 | 9780 ft | 296 kts | 205° |
| 2026-04-21 19:08 | 42.01930 | -74.12678 | 9592 ft | 295 kts | 205° |
| 2026-04-21 19:09 | 41.99979 | -74.13538 | 9403 ft | 293 kts | 205° |
| 2026-04-21 19:09 | 41.98054 | -74.14379 | 9225 ft | 292 kts | 205° |
| 2026-04-21 19:09 | 41.96115 | -74.15231 | 9040 ft | 290 kts | 204° |
| 2026-04-21 19:09 | 41.94212 | -74.16065 | 8859 ft | 288 kts | 204° |
| 2026-04-21 19:10 | 41.92324 | -74.16890 | 8673 ft | 286 kts | 204° |
| 2026-04-21 19:10 | 41.90434 | -74.17720 | 8488 ft | 284 kts | 204° |
| 2026-04-21 19:10 | 41.88563 | -74.18533 | 8298 ft | 282 kts | 203° |
| 2026-04-21 19:10 | 41.86709 | -74.19345 | 8099 ft | 280 kts | 203° |
| 2026-04-21 19:11 | 41.84856 | -74.20153 | 7940 ft | 277 kts | 202° |
| 2026-04-21 19:11 | 41.83036 | -74.20947 | 7959 ft | 276 kts | 203° |
| 2026-04-21 19:11 | 41.81191 | -74.21750 | 7954 ft | 279 kts | 203° |
| 2026-04-21 19:11 | 41.79353 | -74.22554 | 7947 ft | 279 kts | 203° |
| 2026-04-21 19:12 | 41.77496 | -74.23360 | 7949 ft | 281 kts | 203° |
| 2026-04-21 19:12 | 41.75621 | -74.24179 | 7954 ft | 281 kts | 202° |
| 2026-04-21 19:12 | 41.73766 | -74.24984 | 7925 ft | 282 kts | 202° |
| 2026-04-21 19:12 | 41.71920 | -74.25791 | 7646 ft | 282 kts | 202° |
| 2026-04-21 19:13 | 41.70078 | -74.26595 | 7366 ft | 276 kts | 201° |
| 2026-04-21 19:13 | 41.68250 | -74.27388 | 7090 ft | 272 kts | 201° |
| 2026-04-21 19:13 | 41.66456 | -74.28170 | 6946 ft | 268 kts | 201° |
| 2026-04-21 19:13 | 41.64684 | -74.28930 | 6990 ft | 264 kts | 201° |
| 2026-04-21 19:14 | 41.62964 | -74.29677 | 6956 ft | 258 kts | 201° |
| 2026-04-21 19:14 | 41.61245 | -74.30421 | 6982 ft | 260 kts | 202° |
| 2026-04-21 19:14 | 41.59520 | -74.31168 | 6983 ft | 264 kts | 201° |
| 2026-04-21 19:14 | 41.57740 | -74.31941 | 6985 ft | 268 kts | 201° |
| 2026-04-21 19:15 | 41.55955 | -74.32713 | 6986 ft | 272 kts | 202° |
| 2026-04-21 19:15 | 41.54158 | -74.33488 | 6985 ft | 276 kts | 202° |
| 2026-04-21 19:15 | 41.52301 | -74.34295 | 6988 ft | 279 kts | 201° |
| 2026-04-21 19:15 | 41.50449 | -74.35094 | 6989 ft | 282 kts | 201° |
| 2026-04-21 19:16 | 41.48587 | -74.35898 | 6975 ft | 279 kts | 201° |
| 2026-04-21 19:16 | 41.46759 | -74.36684 | 6876 ft | 278 kts | 201° |
| 2026-04-21 19:16 | 41.44930 | -74.37477 | 6583 ft | 273 kts | 201° |
| 2026-04-21 19:16 | 41.43138 | -74.38248 | 6314 ft | 268 kts | 201° |
| 2026-04-21 19:17 | 41.39624 | -74.39762 | 5964 ft | 261 kts | 201° |
| 2026-04-21 19:17 | 41.37886 | -74.40506 | 5995 ft | 264 kts | 201° |
| 2026-04-21 19:17 | 41.36141 | -74.41259 | 5972 ft | 265 kts | 201° |
| 2026-04-21 19:18 | 41.34315 | -74.41711 | 5955 ft | 270 kts | 178° |
| 2026-04-21 19:18 | 41.32527 | -74.40958 | 5995 ft | 274 kts | 150° |
| 2026-04-21 19:18 | 41.30938 | -74.39553 | 6001 ft | 277 kts | 148° |
| 2026-04-21 19:18 | 41.29339 | -74.38127 | 5976 ft | 276 kts | 148° |
| 2026-04-21 19:19 | 41.27731 | -74.36686 | 5978 ft | 275 kts | 148° |
| 2026-04-21 19:19 | 41.26157 | -74.35278 | 5971 ft | 275 kts | 148° |
| 2026-04-21 19:19 | 41.24565 | -74.33852 | 5973 ft | 276 kts | 148° |
| 2026-04-21 19:19 | 41.22969 | -74.32423 | 5783 ft | 277 kts | 148° |
| 2026-04-21 19:20 | 41.21374 | -74.31003 | 5507 ft | 273 kts | 148° |
| 2026-04-21 19:20 | 41.19807 | -74.29616 | 5246 ft | 270 kts | 148° |
| 2026-04-21 19:20 | 41.18240 | -74.28220 | 4998 ft | 268 kts | 148° |
| 2026-04-21 19:20 | 41.16698 | -74.26850 | 4972 ft | 265 kts | 148° |
| 2026-04-21 19:21 | 41.15166 | -74.25491 | 4998 ft | 268 kts | 147° |
| 2026-04-21 19:21 | 41.13604 | -74.24107 | 4798 ft | 267 kts | 147° |
| 2026-04-21 19:21 | 41.12063 | -74.22750 | 4515 ft | 260 kts | 147° |
| 2026-04-21 19:21 | 41.10561 | -74.21420 | 4237 ft | 254 kts | 147° |
| 2026-04-21 19:22 | 41.09114 | -74.20132 | 3999 ft | 247 kts | 147° |
| 2026-04-21 19:22 | 41.07712 | -74.18881 | 3997 ft | 240 kts | 147° |
| 2026-04-21 19:22 | 41.06318 | -74.17632 | 4016 ft | 243 kts | 148° |
| 2026-04-21 19:22 | 41.04915 | -74.16386 | 4008 ft | 245 kts | 148° |
| 2026-04-21 19:23 | 41.03498 | -74.15121 | 3984 ft | 244 kts | 147° |
| 2026-04-21 19:23 | 41.02082 | -74.13863 | 3699 ft | 242 kts | 148° |
| 2026-04-21 19:23 | 41.00692 | -74.12623 | 3427 ft | 237 kts | 148° |
| 2026-04-21 19:23 | 40.99335 | -74.11415 | 3148 ft | 232 kts | 148° |
| 2026-04-21 19:24 | 40.98037 | -74.10258 | 2979 ft | 220 kts | 148° |
| 2026-04-21 19:24 | 40.96819 | -74.09166 | 3003 ft | 203 kts | 147° |
| 2026-04-21 19:24 | 40.95687 | -74.08147 | 3019 ft | 186 kts | 148° |
| 2026-04-21 19:24 | 40.94572 | -74.07492 | 3079 ft | 169 kts | 175° |
| 2026-04-21 19:25 | 40.93428 | -74.07359 | 2976 ft | 159 kts | 179° |
| 2026-04-21 19:25 | 40.92357 | -74.07249 | 2964 ft | 153 kts | 181° |
| 2026-04-21 19:25 | 40.91269 | -74.07133 | 3047 ft | 163 kts | 181° |
| 2026-04-21 19:25 | 40.90091 | -74.07010 | 3037 ft | 173 kts | 180° |
| 2026-04-21 19:26 | 40.88870 | -74.06876 | 3014 ft | 175 kts | 178° |
| 2026-04-21 19:26 | 40.87671 | -74.06749 | 2999 ft | 171 kts | 178° |
| 2026-04-21 19:26 | 40.86492 | -74.06622 | 2980 ft | 165 kts | 177° |
| 2026-04-21 19:26 | 40.85365 | -74.06458 | 3003 ft | 161 kts | 176° |
| 2026-04-21 19:27 | 40.84317 | -74.06866 | 3006 ft | 155 kts | 210° |
| 2026-04-21 19:27 | 40.83353 | -74.07512 | 2967 ft | 157 kts | 206° |
| 2026-04-21 19:27 | 40.82365 | -74.08155 | 2764 ft | 158 kts | 206° |
| 2026-04-21 19:27 | 40.81391 | -74.08769 | 2549 ft | 153 kts | 207° |
| 2026-04-21 19:28 | 40.80441 | -74.09370 | 2336 ft | 148 kts | 207° |
| 2026-04-21 19:28 | 40.79524 | -74.09957 | 2137 ft | 146 kts | 206° |
| 2026-04-21 19:28 | 40.78612 | -74.10535 | 1957 ft | 147 kts | 207° |
| 2026-04-21 19:28 | 40.77682 | -74.11131 | 1768 ft | 149 kts | 206° |
| 2026-04-21 19:29 | 40.76750 | -74.11723 | 1562 ft | 148 kts | 206° |
| 2026-04-21 19:29 | 40.75813 | -74.12317 | 1356 ft | 149 kts | 206° |
| 2026-04-21 19:29 | 40.74876 | -74.12908 | 1150 ft | 148 kts | 206° |
| 2026-04-21 19:29 | 40.73947 | -74.13502 | 948 ft | 148 kts | 205° |
| 2026-04-21 19:30 | 40.73025 | -74.14086 | 746 ft | 148 kts | 206° |
| 2026-04-21 19:30 | 40.72102 | -74.14671 | 545 ft | 147 kts | 205° |
| 2026-04-21 19:30 | 40.71174 | -74.15262 | 345 ft | 148 kts | 205° |
| 2026-04-21 19:30 | 40.70247 | -74.15845 | 144 ft | 148 kts | 204° |
| 2026-04-21 19:31 | 40.69343 | -74.16420 | 21 ft | 131 kts | 206° |
| 2026-04-21 19:31 | 40.68664 | -74.16853 | 19 ft | 85 kts | 206° |
| 2026-04-21 19:31 | 40.68322 | -74.17069 | 19 ft | 49 kts | 206° |
| 2026-04-21 19:31 | 40.68090 | -74.17218 | 19 ft | 28 kts | 206° |
| 2026-04-21 19:32 | 40.67972 | -74.17375 | 18 ft | 15 kts | 250° |
| 2026-04-21 19:32 | 40.67957 | -74.17485 | 18 ft | 9 kts | 269° |
| 2026-04-21 19:32 | 40.67960 | -74.17545 | 18 ft | 4 kts | 280° |
| 2026-04-21 19:32 | 40.67982 | -74.17619 | 19 ft | 15 kts | 295° |
| 2026-04-21 19:33 | 40.68030 | -74.17754 | 18 ft | 16 kts | 296° |
| 2026-04-21 19:33 | 40.68073 | -74.17859 | 19 ft | 8 kts | 313° |
| 2026-04-21 19:33 | 40.68123 | -74.17857 | 18 ft | 9 kts | 27° |
| 2026-04-21 19:33 | 40.68210 | -74.17801 | 19 ft | 15 kts | 25° |
| 2026-04-21 19:34 | 40.68303 | -74.17742 | 18 ft | 14 kts | 26° |
| 2026-04-21 19:34 | 40.68384 | -74.17690 | 19 ft | 12 kts | 26° |
| 2026-04-21 19:34 | 40.68461 | -74.17641 | 19 ft | 12 kts | 26° |
| 2026-04-21 19:34 | 40.68537 | -74.17593 | 18 ft | 12 kts | 25° |
| 2026-04-21 19:35 | 40.68613 | -74.17546 | 19 ft | 11 kts | 25° |
| 2026-04-21 19:35 | 40.68811 | -74.17420 | 19 ft | 16 kts | 26° |
| 2026-04-21 19:35 | 40.68915 | -74.17355 | 19 ft | 16 kts | 25° |
| 2026-04-21 19:36 | 40.69015 | -74.17291 | 19 ft | 15 kts | 26° |
| 2026-04-21 19:36 | 40.69112 | -74.17230 | 19 ft | 13 kts | 26° |
| 2026-04-21 19:36 | 40.69184 | -74.17184 | 19 ft | 9 kts | 26° |
| 2026-04-21 19:36 | 40.69238 | -74.17172 | 19 ft | 6 kts | 338° |
| 2026-04-21 19:37 | 40.69264 | -74.17213 | 19 ft | 5 kts | 302° |
| 2026-04-21 19:37 | 40.69286 | -74.17260 | 19 ft | 6 kts | 302° |
| 2026-04-21 19:37 | 40.69306 | -74.17303 | 19 ft | 4 kts | 302° |
| 2026-04-21 19:37 | 40.69312 | -74.17351 | 19 ft | 5 kts | 251° |
| 2026-04-21 19:38 | 40.69293 | -74.17388 | 19 ft | 4 kts | 211° |
| 2026-04-21 19:38 | 40.69277 | -74.17398 | 19 ft | 1 kts | 209° |
| 2026-04-21 19:38 | 40.69270 | -74.17404 | 19 ft | 0 kts | 214° |